sensor_id;sensor_type;location;lat;lon;timestamp;temperature;humidity
51466;DHT22;37542;50.164;9.086;2022-10-31T00:02:00;7.80;68.20
51466;DHT22;37542;50.164;9.086;2022-10-31T00:05:43;7.80;68.30
51466;DHT22;37542;50.164;9.086;2022-10-31T00:09:25;7.80;68.30
51466;DHT22;37542;50.164;9.086;2022-10-31T00:13:07;7.70;68.20
51466;DHT22;37542;50.164;9.086;2022-10-31T00:16:49;7.70;68.30
51466;DHT22;37542;50.164;9.086;2022-10-31T00:20:30;7.70;68.20
51466;DHT22;37542;50.164;9.086;2022-10-31T00:24:11;7.70;68.50
51466;DHT22;37542;50.164;9.086;2022-10-31T00:27:52;7.60;68.60
51466;DHT22;37542;50.164;9.086;2022-10-31T00:31:33;7.60;69.40
51466;DHT22;37542;50.164;9.086;2022-10-31T00:35:14;7.60;68.70
51466;DHT22;37542;50.164;9.086;2022-10-31T00:38:54;7.60;68.70
51466;DHT22;37542;50.164;9.086;2022-10-31T00:42:35;7.60;68.70
51466;DHT22;37542;50.164;9.086;2022-10-31T00:46:16;7.60;68.70
51466;DHT22;37542;50.164;9.086;2022-10-31T00:49:57;7.50;68.20
51466;DHT22;37542;50.164;9.086;2022-10-31T00:53:38;7.50;68.30
51466;DHT22;37542;50.164;9.086;2022-10-31T00:57:18;7.50;68.40
51466;DHT22;37542;50.164;9.086;2022-10-31T01:00:59;7.40;68.40
51466;DHT22;37542;50.164;9.086;2022-10-31T01:04:40;7.40;68.50
51466;DHT22;37542;50.164;9.086;2022-10-31T01:08:21;7.30;68.50
51466;DHT22;37542;50.164;9.086;2022-10-31T01:12:01;7.30;68.60
51466;DHT22;37542;50.164;9.086;2022-10-31T01:15:42;7.30;68.60
51466;DHT22;37542;50.164;9.086;2022-10-31T01:19:23;7.30;68.70
51466;DHT22;37542;50.164;9.086;2022-10-31T01:23:03;7.20;68.70
51466;DHT22;37542;50.164;9.086;2022-10-31T01:26:44;7.20;68.70
51466;DHT22;37542;50.164;9.086;2022-10-31T01:30:25;7.20;68.80
51466;DHT22;37542;50.164;9.086;2022-10-31T01:34:06;7.20;68.80
51466;DHT22;37542;50.164;9.086;2022-10-31T01:37:47;7.10;68.80
51466;DHT22;37542;50.164;9.086;2022-10-31T01:41:30;7.10;69.50
51466;DHT22;37542;50.164;9.086;2022-10-31T01:45:13;7.10;69.00
51466;DHT22;37542;50.164;9.086;2022-10-31T01:48:55;7.10;69.10
51466;DHT22;37542;50.164;9.086;2022-10-31T01:52:44;7.00;68.90
51466;DHT22;37542;50.164;9.086;2022-10-31T01:56:27;7.00;70.00
51466;DHT22;37542;50.164;9.086;2022-10-31T02:00:09;7.00;69.80
51466;DHT22;37542;50.164;9.086;2022-10-31T02:03:51;7.00;69.30
51466;DHT22;37542;50.164;9.086;2022-10-31T02:07:44;6.90;69.90
51466;DHT22;37542;50.164;9.086;2022-10-31T02:11:33;6.90;69.60
51466;DHT22;37542;50.164;9.086;2022-10-31T02:15:16;7.00;68.80
51466;DHT22;37542;50.164;9.086;2022-10-31T02:18:57;6.90;68.90
51466;DHT22;37542;50.164;9.086;2022-10-31T02:31:27;6.90;70.10
51466;DHT22;37542;50.164;9.086;2022-10-31T02:35:39;6.90;69.50
51466;DHT22;37542;50.164;9.086;2022-10-31T02:39:30;6.80;69.60
51466;DHT22;37542;50.164;9.086;2022-10-31T02:47:28;6.80;69.60
51466;DHT22;37542;50.164;9.086;2022-10-31T02:51:14;6.80;69.60
51466;DHT22;37542;50.164;9.086;2022-10-31T02:54:57;6.80;69.40
51466;DHT22;37542;50.164;9.086;2022-10-31T02:58:59;6.70;68.90
51466;DHT22;37542;50.164;9.086;2022-10-31T03:03:03;6.70;69.70
51466;DHT22;37542;50.164;9.086;2022-10-31T03:11:00;6.70;69.60
51466;DHT22;37542;50.164;9.086;2022-10-31T03:14:50;6.70;69.60
51466;DHT22;37542;50.164;9.086;2022-10-31T03:22:39;6.60;70.30
51466;DHT22;37542;50.164;9.086;2022-10-31T03:26:24;6.60;69.80
51466;DHT22;37542;50.164;9.086;2022-10-31T03:30:06;6.60;69.80
51466;DHT22;37542;50.164;9.086;2022-10-31T03:33:50;6.70;69.90
51466;DHT22;37542;50.164;9.086;2022-10-31T03:37:33;6.60;69.80
51466;DHT22;37542;50.164;9.086;2022-10-31T03:41:19;6.60;69.80
51466;DHT22;37542;50.164;9.086;2022-10-31T03:45:15;6.60;70.00
51466;DHT22;37542;50.164;9.086;2022-10-31T03:49:01;6.60;70.30
51466;DHT22;37542;50.164;9.086;2022-10-31T03:52:58;6.50;69.90
51466;DHT22;37542;50.164;9.086;2022-10-31T03:56:58;6.60;70.40
51466;DHT22;37542;50.164;9.086;2022-10-31T04:00:57;6.60;70.30
51466;DHT22;37542;50.164;9.086;2022-10-31T04:04:43;6.60;70.80
51466;DHT22;37542;50.164;9.086;2022-10-31T04:08:28;6.50;70.00
51466;DHT22;37542;50.164;9.086;2022-10-31T04:12:14;6.60;70.10
51466;DHT22;37542;50.164;9.086;2022-10-31T04:15:56;6.60;70.00
51466;DHT22;37542;50.164;9.086;2022-10-31T04:19:37;6.60;70.00
51466;DHT22;37542;50.164;9.086;2022-10-31T04:23:22;6.60;69.80
51466;DHT22;37542;50.164;9.086;2022-10-31T04:27:05;6.60;69.90
51466;DHT22;37542;50.164;9.086;2022-10-31T04:30:47;6.60;69.90
51466;DHT22;37542;50.164;9.086;2022-10-31T04:34:27;6.60;70.00
51466;DHT22;37542;50.164;9.086;2022-10-31T04:38:08;6.50;70.00
51466;DHT22;37542;50.164;9.086;2022-10-31T04:41:49;6.50;70.00
51466;DHT22;37542;50.164;9.086;2022-10-31T04:45:30;6.50;69.90
51466;DHT22;37542;50.164;9.086;2022-10-31T04:49:11;6.50;70.00
51466;DHT22;37542;50.164;9.086;2022-10-31T04:52:51;6.50;70.00
51466;DHT22;37542;50.164;9.086;2022-10-31T04:56:32;6.50;70.00
51466;DHT22;37542;50.164;9.086;2022-10-31T05:00:14;6.50;70.10
51466;DHT22;37542;50.164;9.086;2022-10-31T05:03:58;6.40;70.10
51466;DHT22;37542;50.164;9.086;2022-10-31T05:07:40;6.40;70.30
51466;DHT22;37542;50.164;9.086;2022-10-31T05:11:22;6.40;70.40
51466;DHT22;37542;50.164;9.086;2022-10-31T05:15:03;6.40;70.20
51466;DHT22;37542;50.164;9.086;2022-10-31T05:18:45;6.40;69.90
51466;DHT22;37542;50.164;9.086;2022-10-31T05:22:26;6.40;69.60
51466;DHT22;37542;50.164;9.086;2022-10-31T05:26:06;6.40;69.70
51466;DHT22;37542;50.164;9.086;2022-10-31T05:29:47;6.40;70.00
51466;DHT22;37542;50.164;9.086;2022-10-31T05:33:28;6.30;70.30
51466;DHT22;37542;50.164;9.086;2022-10-31T05:37:09;6.30;70.40
51466;DHT22;37542;50.164;9.086;2022-10-31T05:40:54;6.30;70.60
51466;DHT22;37542;50.164;9.086;2022-10-31T05:44:38;6.30;71.10
51466;DHT22;37542;50.164;9.086;2022-10-31T05:48:19;6.20;70.60
51466;DHT22;37542;50.164;9.086;2022-10-31T05:51:59;6.20;70.80
51466;DHT22;37542;50.164;9.086;2022-10-31T05:55:41;6.30;70.90
51466;DHT22;37542;50.164;9.086;2022-10-31T05:59:23;6.20;70.90
51466;DHT22;37542;50.164;9.086;2022-10-31T06:03:06;6.30;71.10
51466;DHT22;37542;50.164;9.086;2022-10-31T06:06:48;6.30;71.20
51466;DHT22;37542;50.164;9.086;2022-10-31T06:10:29;6.30;71.00
51466;DHT22;37542;50.164;9.086;2022-10-31T06:14:10;6.30;71.00
51466;DHT22;37542;50.164;9.086;2022-10-31T06:17:58;6.20;70.90
51466;DHT22;37542;50.164;9.086;2022-10-31T06:21:43;6.30;71.20
51466;DHT22;37542;50.164;9.086;2022-10-31T06:25:24;6.30;70.90
51466;DHT22;37542;50.164;9.086;2022-10-31T06:29:04;6.30;71.10
51466;DHT22;37542;50.164;9.086;2022-10-31T06:32:45;6.30;71.20
51466;DHT22;37542;50.164;9.086;2022-10-31T06:36:26;6.30;71.20
51466;DHT22;37542;50.164;9.086;2022-10-31T06:40:07;6.30;71.20
51466;DHT22;37542;50.164;9.086;2022-10-31T06:43:48;6.30;71.30
51466;DHT22;37542;50.164;9.086;2022-10-31T06:47:29;6.30;71.30
51466;DHT22;37542;50.164;9.086;2022-10-31T06:51:10;6.30;71.40
51466;DHT22;37542;50.164;9.086;2022-10-31T06:54:51;6.30;71.50
51466;DHT22;37542;50.164;9.086;2022-10-31T06:58:32;6.30;71.60
51466;DHT22;37542;50.164;9.086;2022-10-31T07:02:12;6.30;71.70
51466;DHT22;37542;50.164;9.086;2022-10-31T07:05:55;6.20;71.80
51466;DHT22;37542;50.164;9.086;2022-10-31T07:09:37;6.40;72.30
51466;DHT22;37542;50.164;9.086;2022-10-31T07:13:17;6.40;72.30
51466;DHT22;37542;50.164;9.086;2022-10-31T07:16:58;6.50;72.60
51466;DHT22;37542;50.164;9.086;2022-10-31T07:20:39;6.50;72.80
51466;DHT22;37542;50.164;9.086;2022-10-31T07:24:20;6.60;73.00
51466;DHT22;37542;50.164;9.086;2022-10-31T07:28:00;6.80;73.20
51466;DHT22;37542;50.164;9.086;2022-10-31T07:31:41;6.80;73.30
51466;DHT22;37542;50.164;9.086;2022-10-31T07:35:26;6.80;73.40
51466;DHT22;37542;50.164;9.086;2022-10-31T07:39:08;6.90;73.70
51466;DHT22;37542;50.164;9.086;2022-10-31T07:42:51;7.10;73.70
51466;DHT22;37542;50.164;9.086;2022-10-31T07:46:33;7.10;74.00
51466;DHT22;37542;50.164;9.086;2022-10-31T07:50:19;7.30;74.00
51466;DHT22;37542;50.164;9.086;2022-10-31T07:54:07;7.40;74.50
51466;DHT22;37542;50.164;9.086;2022-10-31T07:57:58;7.50;74.00
51466;DHT22;37542;50.164;9.086;2022-10-31T08:01:40;7.70;74.90
51466;DHT22;37542;50.164;9.086;2022-10-31T08:05:21;7.80;74.10
51466;DHT22;37542;50.164;9.086;2022-10-31T08:09:02;7.90;74.20
51466;DHT22;37542;50.164;9.086;2022-10-31T08:12:43;8.00;74.20
51466;DHT22;37542;50.164;9.086;2022-10-31T08:16:24;8.10;74.20
51466;DHT22;37542;50.164;9.086;2022-10-31T08:20:05;8.20;74.00
51466;DHT22;37542;50.164;9.086;2022-10-31T08:23:46;8.40;74.00
51466;DHT22;37542;50.164;9.086;2022-10-31T08:27:27;8.50;73.90
51466;DHT22;37542;50.164;9.086;2022-10-31T08:31:08;8.60;73.90
51466;DHT22;37542;50.164;9.086;2022-10-31T08:34:50;8.60;73.80
51466;DHT22;37542;50.164;9.086;2022-10-31T08:38:31;8.70;74.00
51466;DHT22;37542;50.164;9.086;2022-10-31T08:42:11;8.80;74.10
51466;DHT22;37542;50.164;9.086;2022-10-31T08:45:53;8.80;73.90
51466;DHT22;37542;50.164;9.086;2022-10-31T08:49:35;8.90;74.10
51466;DHT22;37542;50.164;9.086;2022-10-31T08:53:18;9.00;74.00
51466;DHT22;37542;50.164;9.086;2022-10-31T08:56:59;9.10;74.20
51466;DHT22;37542;50.164;9.086;2022-10-31T09:00:40;9.20;74.10
51466;DHT22;37542;50.164;9.086;2022-10-31T09:04:21;9.30;74.10
51466;DHT22;37542;50.164;9.086;2022-10-31T09:08:04;9.40;74.10
51466;DHT22;37542;50.164;9.086;2022-10-31T09:11:46;9.50;74.40
51466;DHT22;37542;50.164;9.086;2022-10-31T09:15:27;9.70;74.30
51466;DHT22;37542;50.164;9.086;2022-10-31T09:19:08;9.80;74.20
51466;DHT22;37542;50.164;9.086;2022-10-31T09:22:56;9.90;74.10
51466;DHT22;37542;50.164;9.086;2022-10-31T09:26:38;10.00;74.60
51466;DHT22;37542;50.164;9.086;2022-10-31T09:30:19;10.20;74.10
51466;DHT22;37542;50.164;9.086;2022-10-31T09:33:59;10.30;74.10
51466;DHT22;37542;50.164;9.086;2022-10-31T09:37:40;10.40;74.10
51466;DHT22;37542;50.164;9.086;2022-10-31T09:46:15;10.70;74.30
51466;DHT22;37542;50.164;9.086;2022-10-31T09:50:11;10.90;73.90
51466;DHT22;37542;50.164;9.086;2022-10-31T09:54:16;11.10;73.80
51466;DHT22;37542;50.164;9.086;2022-10-31T09:58:01;11.20;73.50
51466;DHT22;37542;50.164;9.086;2022-10-31T10:01:47;11.30;73.30
51466;DHT22;37542;50.164;9.086;2022-10-31T10:06:26;11.40;73.20
51466;DHT22;37542;50.164;9.086;2022-10-31T10:09:52;11.50;73.80
51466;DHT22;37542;50.164;9.086;2022-10-31T10:13:45;11.60;72.90
51466;DHT22;37542;50.164;9.086;2022-10-31T10:26:40;11.90;72.30
51466;DHT22;37542;50.164;9.086;2022-10-31T10:31:31;12.00;72.40
51466;DHT22;37542;50.164;9.086;2022-10-31T10:35:17;12.10;72.20
51466;DHT22;37542;50.164;9.086;2022-10-31T10:39:20;12.20;72.20
51466;DHT22;37542;50.164;9.086;2022-10-31T10:47:11;12.40;71.90
51466;DHT22;37542;50.164;9.086;2022-10-31T10:51:21;12.50;72.20
51466;DHT22;37542;50.164;9.086;2022-10-31T10:55:39;12.70;72.00
51466;DHT22;37542;50.164;9.086;2022-10-31T10:59:29;12.80;71.90
51466;DHT22;37542;50.164;9.086;2022-10-31T11:03:11;12.90;72.00
51466;DHT22;37542;50.164;9.086;2022-10-31T11:07:08;13.00;71.80
51466;DHT22;37542;50.164;9.086;2022-10-31T11:11:22;13.10;71.60
51466;DHT22;37542;50.164;9.086;2022-10-31T11:15:20;13.30;71.20
51466;DHT22;37542;50.164;9.086;2022-10-31T11:23:17;13.50;70.80
51466;DHT22;37542;50.164;9.086;2022-10-31T11:27:14;13.70;70.60
51466;DHT22;37542;50.164;9.086;2022-10-31T11:30:59;13.80;70.10
51466;DHT22;37542;50.164;9.086;2022-10-31T11:34:45;13.90;70.30
51466;DHT22;37542;50.164;9.086;2022-10-31T11:38:39;14.00;70.20
51466;DHT22;37542;50.164;9.086;2022-10-31T11:42:27;14.10;70.10
51466;DHT22;37542;50.164;9.086;2022-10-31T11:46:34;14.20;70.00
51466;DHT22;37542;50.164;9.086;2022-10-31T11:50:24;14.30;69.70
51466;DHT22;37542;50.164;9.086;2022-10-31T11:54:23;14.50;69.30
51466;DHT22;37542;50.164;9.086;2022-10-31T11:58:27;14.60;69.40
51466;DHT22;37542;50.164;9.086;2022-10-31T12:02:18;14.70;69.10
51466;DHT22;37542;50.164;9.086;2022-10-31T12:06:20;14.90;68.70
51466;DHT22;37542;50.164;9.086;2022-10-31T12:10:11;15.00;68.30
51466;DHT22;37542;50.164;9.086;2022-10-31T12:14:15;15.10;68.00
51466;DHT22;37542;50.164;9.086;2022-10-31T12:18:25;15.20;67.50
51466;DHT22;37542;50.164;9.086;2022-10-31T12:22:46;15.30;68.70
51466;DHT22;37542;50.164;9.086;2022-10-31T12:26:49;15.30;67.20
51466;DHT22;37542;50.164;9.086;2022-10-31T12:35:14;15.40;67.30
51466;DHT22;37542;50.164;9.086;2022-10-31T12:43:56;15.60;66.80
51466;DHT22;37542;50.164;9.086;2022-10-31T12:56:38;15.90;67.00
51466;DHT22;37542;50.164;9.086;2022-10-31T13:00:28;16.00;66.80
51466;DHT22;37542;50.164;9.086;2022-10-31T13:04:29;16.00;67.50
51466;DHT22;37542;50.164;9.086;2022-10-31T13:08:21;16.10;66.40
51466;DHT22;37542;50.164;9.086;2022-10-31T13:12:14;16.20;66.30
51466;DHT22;37542;50.164;9.086;2022-10-31T13:16:12;16.30;65.50
51466;DHT22;37542;50.164;9.086;2022-10-31T13:23:57;16.40;65.20
51466;DHT22;37542;50.164;9.086;2022-10-31T13:31:29;16.50;66.40
51466;DHT22;37542;50.164;9.086;2022-10-31T13:40:14;16.60;65.40
51466;DHT22;37542;50.164;9.086;2022-10-31T13:56:23;16.70;65.10
51466;DHT22;37542;50.164;9.086;2022-10-31T14:07:47;16.70;65.50
51466;DHT22;37542;50.164;9.086;2022-10-31T14:11:29;16.70;65.90
51466;DHT22;37542;50.164;9.086;2022-10-31T14:15:24;16.70;66.00
51466;DHT22;37542;50.164;9.086;2022-10-31T14:19:13;16.70;65.30
51466;DHT22;37542;50.164;9.086;2022-10-31T14:22:57;16.70;65.60
51466;DHT22;37542;50.164;9.086;2022-10-31T14:26:37;16.70;65.50
51466;DHT22;37542;50.164;9.086;2022-10-31T14:30:22;16.70;65.60
51466;DHT22;37542;50.164;9.086;2022-10-31T14:50:50;16.60;65.20
51466;DHT22;37542;50.164;9.086;2022-10-31T14:54:37;16.60;65.30
51466;DHT22;37542;50.164;9.086;2022-10-31T14:58:25;16.50;65.60
51466;DHT22;37542;50.164;9.086;2022-10-31T15:02:23;16.50;65.80
51466;DHT22;37542;50.164;9.086;2022-10-31T15:06:13;16.40;65.70
51466;DHT22;37542;50.164;9.086;2022-10-31T15:10:02;16.40;66.00
51466;DHT22;37542;50.164;9.086;2022-10-31T15:17:32;16.30;65.90
51466;DHT22;37542;50.164;9.086;2022-10-31T15:21:15;16.30;66.30
51466;DHT22;37542;50.164;9.086;2022-10-31T15:24:57;16.20;66.40
51466;DHT22;37542;50.164;9.086;2022-10-31T15:28:38;16.20;66.60
51466;DHT22;37542;50.164;9.086;2022-10-31T15:32:25;16.20;66.70
51466;DHT22;37542;50.164;9.086;2022-10-31T15:36:21;16.20;66.90
51466;DHT22;37542;50.164;9.086;2022-10-31T15:40:16;16.10;66.70
51466;DHT22;37542;50.164;9.086;2022-10-31T15:48:15;16.00;66.50
51466;DHT22;37542;50.164;9.086;2022-10-31T15:52:14;16.00;66.50
51466;DHT22;37542;50.164;9.086;2022-10-31T15:56:22;15.90;66.30
51466;DHT22;37542;50.164;9.086;2022-10-31T16:00:06;15.80;66.20
51466;DHT22;37542;50.164;9.086;2022-10-31T16:07:52;15.60;66.40
51466;DHT22;37542;50.164;9.086;2022-10-31T16:11:37;15.40;65.90
51466;DHT22;37542;50.164;9.086;2022-10-31T16:15:20;15.30;65.50
51466;DHT22;37542;50.164;9.086;2022-10-31T16:19:03;15.20;65.50
51466;DHT22;37542;50.164;9.086;2022-10-31T16:22:49;15.00;65.60
51466;DHT22;37542;50.164;9.086;2022-10-31T16:26:31;14.90;65.60
51466;DHT22;37542;50.164;9.086;2022-10-31T16:30:44;14.70;66.10
51466;DHT22;37542;50.164;9.086;2022-10-31T16:34:26;14.60;66.70
51466;DHT22;37542;50.164;9.086;2022-10-31T16:38:08;14.50;66.60
51466;DHT22;37542;50.164;9.086;2022-10-31T16:41:55;14.40;67.00
51466;DHT22;37542;50.164;9.086;2022-10-31T16:45:36;14.30;67.30
51466;DHT22;37542;50.164;9.086;2022-10-31T16:49:17;14.20;67.20
51466;DHT22;37542;50.164;9.086;2022-10-31T16:52:59;14.10;67.40
51466;DHT22;37542;50.164;9.086;2022-10-31T16:56:39;14.00;67.60
51466;DHT22;37542;50.164;9.086;2022-10-31T17:00:23;14.00;68.00
51466;DHT22;37542;50.164;9.086;2022-10-31T17:04:07;13.90;68.10
51466;DHT22;37542;50.164;9.086;2022-10-31T17:07:49;13.80;68.10
51466;DHT22;37542;50.164;9.086;2022-10-31T17:11:31;13.80;68.50
51466;DHT22;37542;50.164;9.086;2022-10-31T17:15:22;13.70;69.20
51466;DHT22;37542;50.164;9.086;2022-10-31T17:19:05;13.60;69.00
51466;DHT22;37542;50.164;9.086;2022-10-31T17:22:45;13.60;68.60
51466;DHT22;37542;50.164;9.086;2022-10-31T17:26:26;13.50;68.50
51466;DHT22;37542;50.164;9.086;2022-10-31T17:30:08;13.40;68.60
51466;DHT22;37542;50.164;9.086;2022-10-31T17:33:54;13.50;68.80
51466;DHT22;37542;50.164;9.086;2022-10-31T17:37:36;13.50;68.80
51466;DHT22;37542;50.164;9.086;2022-10-31T17:41:17;13.40;68.70
51466;DHT22;37542;50.164;9.086;2022-10-31T17:44:58;13.40;68.70
51466;DHT22;37542;50.164;9.086;2022-10-31T17:48:38;13.30;68.60
51466;DHT22;37542;50.164;9.086;2022-10-31T17:52:19;13.30;68.40
51466;DHT22;37542;50.164;9.086;2022-10-31T17:56:06;13.20;68.60
51466;DHT22;37542;50.164;9.086;2022-10-31T17:59:48;13.20;68.60
51466;DHT22;37542;50.164;9.086;2022-10-31T18:03:31;13.10;68.50
51466;DHT22;37542;50.164;9.086;2022-10-31T18:07:15;13.00;69.00
51466;DHT22;37542;50.164;9.086;2022-10-31T18:10:59;12.90;68.80
51466;DHT22;37542;50.164;9.086;2022-10-31T18:14:44;12.80;69.00
51466;DHT22;37542;50.164;9.086;2022-10-31T18:18:25;12.80;69.10
51466;DHT22;37542;50.164;9.086;2022-10-31T18:22:06;12.70;69.10
51466;DHT22;37542;50.164;9.086;2022-10-31T18:25:47;12.70;69.40
51466;DHT22;37542;50.164;9.086;2022-10-31T18:29:28;12.70;69.40
51466;DHT22;37542;50.164;9.086;2022-10-31T18:33:11;12.70;69.50
51466;DHT22;37542;50.164;9.086;2022-10-31T18:36:52;12.70;69.50
51466;DHT22;37542;50.164;9.086;2022-10-31T18:40:33;12.60;69.40
51466;DHT22;37542;50.164;9.086;2022-10-31T18:44:18;12.60;69.30
51466;DHT22;37542;50.164;9.086;2022-10-31T18:47:59;12.60;69.20
51466;DHT22;37542;50.164;9.086;2022-10-31T18:51:40;12.50;69.30
51466;DHT22;37542;50.164;9.086;2022-10-31T18:55:20;12.40;68.80
51466;DHT22;37542;50.164;9.086;2022-10-31T18:59:01;12.40;69.10
51466;DHT22;37542;50.164;9.086;2022-10-31T19:02:42;12.40;69.00
51466;DHT22;37542;50.164;9.086;2022-10-31T19:06:24;12.20;68.60
51466;DHT22;37542;50.164;9.086;2022-10-31T19:14:07;12.10;68.40
51466;DHT22;37542;50.164;9.086;2022-10-31T19:17:50;12.00;68.40
51466;DHT22;37542;50.164;9.086;2022-10-31T19:21:31;11.90;68.10
51466;DHT22;37542;50.164;9.086;2022-10-31T19:25:12;11.80;68.70
51466;DHT22;37542;50.164;9.086;2022-10-31T19:28:54;11.70;68.80
51466;DHT22;37542;50.164;9.086;2022-10-31T19:32:36;11.60;69.20
51466;DHT22;37542;50.164;9.086;2022-10-31T19:36:21;11.50;69.20
51466;DHT22;37542;50.164;9.086;2022-10-31T19:40:05;11.40;69.30
51466;DHT22;37542;50.164;9.086;2022-10-31T19:43:48;11.30;69.60
51466;DHT22;37542;50.164;9.086;2022-10-31T19:47:29;11.30;69.70
51466;DHT22;37542;50.164;9.086;2022-10-31T19:51:19;11.30;69.90
51466;DHT22;37542;50.164;9.086;2022-10-31T19:55:01;11.10;70.90
51466;DHT22;37542;50.164;9.086;2022-10-31T19:58:42;11.10;70.50
51466;DHT22;37542;50.164;9.086;2022-10-31T20:02:23;11.00;70.70
51466;DHT22;37542;50.164;9.086;2022-10-31T20:06:05;11.00;71.40
51466;DHT22;37542;50.164;9.086;2022-10-31T20:09:46;11.00;71.60
51466;DHT22;37542;50.164;9.086;2022-10-31T20:13:28;11.00;71.60
51466;DHT22;37542;50.164;9.086;2022-10-31T20:17:10;11.00;71.80
51466;DHT22;37542;50.164;9.086;2022-10-31T20:20:51;11.00;71.70
51466;DHT22;37542;50.164;9.086;2022-10-31T20:24:32;11.10;71.80
51466;DHT22;37542;50.164;9.086;2022-10-31T20:28:13;11.10;71.80
51466;DHT22;37542;50.164;9.086;2022-10-31T20:31:54;11.10;71.80
51466;DHT22;37542;50.164;9.086;2022-10-31T20:35:37;11.10;71.80
51466;DHT22;37542;50.164;9.086;2022-10-31T20:39:19;11.10;71.80
51466;DHT22;37542;50.164;9.086;2022-10-31T20:43:02;11.10;71.70
51466;DHT22;37542;50.164;9.086;2022-10-31T20:46:43;11.20;71.70
51466;DHT22;37542;50.164;9.086;2022-10-31T20:50:24;11.20;71.60
51466;DHT22;37542;50.164;9.086;2022-10-31T20:54:06;11.10;71.50
51466;DHT22;37542;50.164;9.086;2022-10-31T20:57:46;11.20;71.60
51466;DHT22;37542;50.164;9.086;2022-10-31T21:01:29;11.10;71.40
51466;DHT22;37542;50.164;9.086;2022-10-31T21:05:12;11.10;71.50
51466;DHT22;37542;50.164;9.086;2022-10-31T21:08:54;11.10;71.30
51466;DHT22;37542;50.164;9.086;2022-10-31T21:12:38;11.10;71.20
51466;DHT22;37542;50.164;9.086;2022-10-31T21:16:29;11.00;71.20
51466;DHT22;37542;50.164;9.086;2022-10-31T21:20:11;11.00;71.10
51466;DHT22;37542;50.164;9.086;2022-10-31T21:27:53;10.90;71.60
51466;DHT22;37542;50.164;9.086;2022-10-31T21:31:35;10.90;71.10
51466;DHT22;37542;50.164;9.086;2022-10-31T21:35:17;10.80;71.30
51466;DHT22;37542;50.164;9.086;2022-10-31T21:38:58;10.80;71.30
51466;DHT22;37542;50.164;9.086;2022-10-31T21:42:39;10.80;71.30
51466;DHT22;37542;50.164;9.086;2022-10-31T21:46:26;10.70;71.30
51466;DHT22;37542;50.164;9.086;2022-10-31T21:50:13;10.70;71.60
51466;DHT22;37542;50.164;9.086;2022-10-31T21:53:55;10.70;71.30
51466;DHT22;37542;50.164;9.086;2022-10-31T21:57:59;10.60;71.30
51466;DHT22;37542;50.164;9.086;2022-10-31T22:01:40;10.60;71.30
51466;DHT22;37542;50.164;9.086;2022-10-31T22:05:24;10.50;71.20
51466;DHT22;37542;50.164;9.086;2022-10-31T22:09:07;10.50;71.20
51466;DHT22;37542;50.164;9.086;2022-10-31T22:12:57;10.40;71.40
51466;DHT22;37542;50.164;9.086;2022-10-31T22:16:41;10.40;71.40
51466;DHT22;37542;50.164;9.086;2022-10-31T22:20:22;10.30;71.30
51466;DHT22;37542;50.164;9.086;2022-10-31T22:24:05;10.30;71.50
51466;DHT22;37542;50.164;9.086;2022-10-31T22:27:48;10.20;71.70
51466;DHT22;37542;50.164;9.086;2022-10-31T22:31:39;10.20;71.80
51466;DHT22;37542;50.164;9.086;2022-10-31T22:35:21;10.20;72.30
51466;DHT22;37542;50.164;9.086;2022-10-31T22:39:03;10.10;72.00
51466;DHT22;37542;50.164;9.086;2022-10-31T22:42:44;10.10;72.00
51466;DHT22;37542;50.164;9.086;2022-10-31T22:46:28;10.10;72.00
51466;DHT22;37542;50.164;9.086;2022-10-31T22:50:10;10.10;72.00
51466;DHT22;37542;50.164;9.086;2022-10-31T22:53:52;10.10;72.60
51466;DHT22;37542;50.164;9.086;2022-10-31T22:57:35;10.00;71.80
51466;DHT22;37542;50.164;9.086;2022-10-31T23:01:22;10.00;72.40
51466;DHT22;37542;50.164;9.086;2022-10-31T23:05:06;10.00;71.50
51466;DHT22;37542;50.164;9.086;2022-10-31T23:08:47;10.00;71.30
51466;DHT22;37542;50.164;9.086;2022-10-31T23:12:29;9.90;71.20
51466;DHT22;37542;50.164;9.086;2022-10-31T23:16:29;9.90;71.30
51466;DHT22;37542;50.164;9.086;2022-10-31T23:20:10;9.80;71.40
51466;DHT22;37542;50.164;9.086;2022-10-31T23:23:50;9.80;71.50
51466;DHT22;37542;50.164;9.086;2022-10-31T23:27:31;9.80;71.60
51466;DHT22;37542;50.164;9.086;2022-10-31T23:31:12;9.80;71.70
51466;DHT22;37542;50.164;9.086;2022-10-31T23:35:00;9.70;71.70
51466;DHT22;37542;50.164;9.086;2022-10-31T23:38:46;9.70;72.00
51466;DHT22;37542;50.164;9.086;2022-10-31T23:42:30;9.70;71.70
51466;DHT22;37542;50.164;9.086;2022-10-31T23:46:11;9.60;71.80
51466;DHT22;37542;50.164;9.086;2022-10-31T23:49:51;9.60;71.80
51466;DHT22;37542;50.164;9.086;2022-10-31T23:53:32;9.60;71.70
51466;DHT22;37542;50.164;9.086;2022-10-31T23:57:14;9.60;71.70
